createdAt,value
2019-01-30T00:02:16.111Z,99.90
2019-01-30T00:04:45.664Z,99.90
2019-01-30T00:07:15.192Z,99.90
2019-01-30T00:09:44.687Z,99.90
2019-01-30T00:12:14.665Z,99.90
2019-01-30T00:14:44.240Z,99.90
2019-01-30T00:17:13.689Z,99.90
2019-01-30T00:19:43.319Z,99.90
2019-01-30T00:22:13.557Z,99.90
2019-01-30T00:24:43.340Z,99.90
2019-01-30T00:27:12.987Z,99.90
2019-01-30T00:29:42.685Z,99.90
2019-01-30T00:32:12.360Z,99.90
2019-01-30T00:34:41.718Z,99.90
2019-01-30T00:37:11.538Z,99.90
2019-01-30T00:39:41.143Z,99.90
2019-01-30T00:42:10.730Z,99.90
2019-01-30T00:44:40.495Z,99.90
2019-01-30T00:47:15.980Z,99.90
2019-01-30T00:49:41.995Z,99.90
2019-01-30T00:52:11.846Z,99.90
2019-01-30T00:54:41.761Z,99.90
2019-01-30T00:57:11.470Z,99.90
2019-01-30T00:59:43.506Z,99.90
2019-01-30T01:02:12.925Z,99.90
2019-01-30T01:04:42.527Z,99.90
2019-01-30T01:07:12.444Z,99.90
2019-01-30T01:09:42.309Z,99.90
2019-01-30T01:12:12.288Z,99.90
2019-01-30T01:14:41.999Z,99.90
2019-01-30T01:17:14.378Z,99.90
2019-01-30T01:19:44.075Z,99.90
2019-01-30T01:22:13.792Z,99.90
2019-01-30T01:24:43.336Z,99.90
2019-01-30T01:27:13.006Z,99.90
2019-01-30T01:29:42.800Z,99.90
2019-01-30T01:32:12.637Z,99.90
2019-01-30T01:34:44.679Z,99.90
2019-01-30T01:37:13.852Z,99.90
2019-01-30T01:39:43.809Z,99.90
2019-01-30T01:42:33.076Z,99.90
2019-01-30T01:45:03.444Z,99.90
2019-01-30T01:47:33.494Z,99.90
2019-01-30T01:50:04.402Z,99.90
2019-01-30T01:52:34.886Z,99.90
2019-01-30T01:55:07.963Z,99.90
2019-01-30T01:57:37.741Z,99.90
2019-01-30T02:00:09.648Z,99.90
2019-01-30T02:02:39.453Z,99.90
2019-01-30T02:05:12.139Z,99.90
2019-01-30T02:07:42.442Z,99.90
2019-01-30T02:10:14.161Z,99.90
2019-01-30T02:12:43.618Z,99.90
2019-01-30T02:15:15.381Z,99.90
2019-01-30T02:17:44.790Z,99.90
2019-01-30T02:20:16.947Z,99.90
2019-01-30T02:22:46.750Z,99.90
2019-01-30T02:25:16.099Z,99.90
2019-01-30T02:27:45.636Z,99.90
2019-01-30T02:30:17.793Z,99.90
2019-01-30T02:32:47.608Z,99.90
2019-01-30T02:35:17.227Z,99.90
2019-01-30T02:37:46.661Z,99.90
2019-01-30T02:40:17.457Z,99.90
2019-01-30T02:42:59.805Z,99.90
2019-01-30T02:45:29.615Z,99.90
2019-01-30T02:48:04.986Z,99.90
2019-01-30T02:50:35.224Z,99.90
2019-01-30T02:53:05.354Z,99.90
2019-01-30T02:55:35.594Z,99.90
2019-01-30T02:58:06.003Z,99.90
2019-01-30T03:00:37.501Z,99.90
2019-01-30T03:03:07.501Z,99.90
2019-01-30T03:05:37.676Z,99.90
2019-01-30T03:08:07.597Z,99.90
2019-01-30T03:10:40.212Z,99.90
2019-01-30T03:13:09.839Z,99.90
2019-01-30T03:15:39.446Z,99.90
2019-01-30T03:18:09.464Z,99.90
2019-01-30T03:20:39.073Z,99.90
2019-01-30T03:23:15.413Z,99.90
2019-01-30T03:25:45.012Z,99.90
2019-01-30T03:28:14.808Z,99.90
2019-01-30T03:30:44.279Z,99.90
2019-01-30T03:33:14.306Z,99.90
2019-01-30T03:35:52.895Z,99.90
2019-01-30T03:38:27.892Z,99.90
2019-01-30T03:40:57.709Z,99.90
2019-01-30T03:43:27.626Z,99.90
2019-01-30T03:45:57.081Z,98.50
2019-01-30T03:48:30.567Z,95.40
2019-01-30T03:51:19.392Z,92.50
2019-01-30T03:53:49.335Z,94.20
2019-01-30T03:56:21.598Z,94.40
2019-01-30T03:58:51.445Z,95.20
2019-01-30T04:01:26.682Z,97.00
2019-01-30T04:03:55.137Z,97.50
2019-01-30T04:06:24.620Z,98.80
2019-01-30T04:08:54.353Z,97.10
2019-01-30T04:11:24.203Z,99.00
2019-01-30T04:13:53.972Z,99.20
2019-01-30T04:16:26.930Z,99.40
2019-01-30T04:18:56.981Z,96.90
2019-01-30T04:21:27.204Z,99.00
2019-01-30T04:23:58.553Z,99.90
2019-01-30T04:26:28.545Z,99.90
2019-01-30T04:29:01.885Z,99.90
2019-01-30T04:31:38.363Z,99.90
2019-01-30T04:34:03.671Z,99.60
2019-01-30T04:36:53.635Z,98.00
2019-01-30T04:39:55.067Z,95.10
2019-01-30T04:42:24.867Z,92.40
2019-01-30T04:44:54.860Z,91.60
2019-01-30T04:48:13.614Z,91.50
2019-01-30T04:50:43.312Z,90.80
2019-01-30T04:53:14.613Z,90.40
2019-01-30T04:55:46.383Z,90.20
2019-01-30T04:58:20.594Z,90.00
2019-01-30T05:00:56.191Z,91.00
2019-01-30T05:03:26.054Z,88.50
2019-01-30T05:05:55.775Z,88.10
2019-01-30T05:08:32.556Z,87.40
2019-01-30T05:11:02.191Z,85.40
2019-01-30T05:13:31.960Z,88.40
2019-01-30T05:16:01.417Z,88.60
2019-01-30T05:18:30.992Z,91.80
2019-01-30T05:21:00.269Z,91.40
2019-01-30T05:23:29.686Z,91.30
2019-01-30T05:25:59.987Z,92.00
2019-01-30T05:28:29.599Z,85.30
2019-01-30T05:30:59.006Z,82.30
2019-01-30T05:33:28.572Z,83.10
2019-01-30T05:35:58.148Z,81.30
2019-01-30T05:38:27.636Z,84.20
2019-01-30T05:40:57.029Z,83.20
2019-01-30T05:43:26.368Z,84.50
2019-01-30T05:45:55.808Z,86.80
2019-01-30T05:48:25.319Z,86.90
2019-01-30T05:50:54.507Z,85.40
2019-01-30T05:53:23.628Z,84.30
2019-01-30T05:55:52.827Z,85.40
2019-01-30T05:58:21.923Z,87.20
2019-01-30T06:00:51.203Z,83.50
2019-01-30T06:03:20.440Z,80.70
2019-01-30T06:05:49.867Z,78.90
2019-01-30T06:08:19.203Z,80.50
2019-01-30T06:10:48.407Z,81.00
2019-01-30T06:13:17.605Z,83.50
2019-01-30T06:15:46.780Z,82.50
2019-01-30T06:18:16.191Z,84.60
2019-01-30T06:20:45.384Z,83.80
2019-01-30T06:23:14.597Z,84.50
2019-01-30T06:25:43.858Z,85.90
2019-01-30T06:28:13.064Z,85.70
2019-01-30T06:30:42.220Z,88.80
2019-01-30T06:33:11.405Z,89.00
2019-01-30T06:35:40.746Z,90.10
2019-01-30T06:38:10.114Z,90.60
2019-01-30T06:40:39.435Z,91.20
2019-01-30T06:43:09.117Z,92.10
2019-01-30T06:45:38.748Z,91.80
2019-01-30T06:48:08.328Z,91.90
2019-01-30T06:50:46.889Z,91.70
2019-01-30T06:53:16.274Z,92.30
2019-01-30T06:55:45.758Z,92.90
2019-01-30T06:58:15.114Z,92.20
2019-01-30T07:00:44.467Z,92.20
2019-01-30T07:03:13.987Z,94.60
2019-01-30T07:05:43.682Z,94.10
2019-01-30T07:08:13.096Z,95.10
2019-01-30T07:10:42.538Z,99.90
2019-01-30T07:13:12.115Z,96.90
2019-01-30T07:15:41.587Z,96.50
2019-01-30T07:18:11.111Z,97.20
2019-01-30T07:20:40.722Z,97.00
2019-01-30T07:23:10.216Z,97.60
2019-01-30T07:25:39.620Z,97.30
2019-01-30T07:28:09.214Z,98.30
2019-01-30T07:30:38.544Z,98.70
2019-01-30T07:33:08.267Z,98.40
2019-01-30T07:35:37.743Z,98.90
2019-01-30T07:38:07.136Z,98.90
2019-01-30T07:40:36.335Z,99.50
2019-01-30T07:43:05.694Z,99.50
2019-01-30T07:45:35.005Z,99.80
2019-01-30T07:48:04.355Z,99.90
2019-01-30T07:50:33.651Z,99.90
2019-01-30T07:53:02.946Z,99.90
2019-01-30T07:55:32.312Z,99.90
2019-01-30T07:58:01.451Z,99.90
2019-01-30T08:00:32.529Z,99.90
2019-01-30T08:03:01.704Z,99.90
2019-01-30T08:05:30.980Z,99.90
2019-01-30T08:08:00.127Z,99.90
2019-01-30T08:10:29.280Z,99.90
2019-01-30T08:12:58.484Z,99.90
2019-01-30T08:15:27.661Z,99.90
2019-01-30T08:17:56.764Z,99.90
2019-01-30T08:20:25.917Z,99.90
2019-01-30T08:22:55.457Z,99.90
2019-01-30T08:25:25.034Z,99.90
2019-01-30T08:27:54.375Z,99.80
2019-01-30T08:30:26.086Z,99.80
2019-01-30T08:33:04.269Z,99.00
2019-01-30T08:35:28.184Z,96.40
2019-01-30T08:37:57.333Z,99.30
2019-01-30T08:40:26.491Z,99.90
2019-01-30T08:42:55.600Z,99.90
2019-01-30T08:45:26.956Z,99.90
2019-01-30T08:47:56.277Z,99.00
2019-01-30T08:50:26.151Z,98.80
2019-01-30T08:52:55.387Z,97.20
2019-01-30T08:55:24.686Z,97.30
2019-01-30T08:57:54.031Z,96.40
2019-01-30T09:00:24.568Z,97.10
2019-01-30T09:02:53.884Z,96.90
2019-01-30T09:05:23.286Z,96.90
2019-01-30T09:07:52.516Z,97.30
2019-01-30T09:10:22.699Z,97.10
2019-01-30T09:12:51.973Z,97.20
2019-01-30T09:15:22.368Z,96.00
2019-01-30T09:17:51.573Z,95.80
2019-01-30T09:20:22.415Z,95.40
2019-01-30T09:22:51.640Z,95.40
2019-01-30T09:25:22.815Z,95.70
2019-01-30T09:27:51.960Z,95.20
2019-01-30T09:30:23.505Z,90.70
2019-01-30T09:32:55.218Z,90.90
2019-01-30T09:35:23.507Z,87.20
2019-01-30T09:37:52.791Z,91.80
2019-01-30T09:40:22.073Z,92.70
2019-01-30T09:42:51.254Z,92.90
2019-01-30T09:45:20.472Z,92.90
2019-01-30T09:47:49.694Z,92.10
2019-01-30T09:50:19.719Z,92.10
2019-01-30T09:52:49.240Z,91.40
2019-01-30T09:55:18.614Z,91.40
2019-01-30T09:57:48.068Z,89.20
2019-01-30T10:00:20.228Z,90.20
2019-01-30T10:02:49.382Z,88.20
2019-01-30T10:05:18.864Z,87.50
2019-01-30T10:07:48.041Z,87.70
2019-01-30T10:10:19.864Z,84.30
2019-01-30T10:12:49.056Z,84.90
2019-01-30T10:15:19.988Z,83.20
2019-01-30T10:17:49.078Z,85.00
2019-01-30T10:20:20.355Z,86.40
2019-01-30T10:22:49.473Z,82.40
2019-01-30T10:25:18.663Z,84.30
2019-01-30T10:27:47.840Z,83.50
2019-01-30T10:30:28.896Z,80.60
2019-01-30T10:32:58.083Z,77.70
2019-01-30T10:35:27.232Z,77.30
2019-01-30T10:37:56.544Z,75.70
2019-01-30T10:40:25.639Z,73.40
2019-01-30T10:42:57.287Z,74.40
2019-01-30T10:45:25.760Z,71.10
2019-01-30T10:47:54.857Z,71.90
2019-01-30T10:50:27.890Z,71.50
2019-01-30T10:52:57.041Z,70.30
2019-01-30T10:55:27.726Z,63.70
2019-01-30T10:57:58.480Z,65.10
2019-01-30T11:00:30.237Z,63.60
2019-01-30T11:02:59.435Z,64.50
2019-01-30T11:05:28.536Z,64.00
2019-01-30T11:07:57.651Z,66.20
2019-01-30T11:10:26.839Z,65.10
2019-01-30T11:12:55.939Z,64.50
2019-01-30T11:15:26.239Z,66.00
2019-01-30T11:17:55.336Z,61.80
2019-01-30T11:20:24.459Z,63.20
2019-01-30T11:22:53.880Z,58.80
2019-01-30T11:25:25.565Z,57.90
2019-01-30T11:27:54.668Z,60.60
2019-01-30T11:30:23.848Z,57.40
2019-01-30T11:32:55.226Z,57.50
2019-01-30T11:35:23.877Z,60.00
2019-01-30T11:37:53.203Z,60.70
2019-01-30T11:40:22.407Z,59.90
2019-01-30T11:42:51.935Z,57.60
2019-01-30T11:45:24.176Z,58.30
2019-01-30T11:47:53.388Z,58.80
2019-01-30T11:50:22.495Z,59.00
2019-01-30T11:52:51.580Z,58.50
2019-01-30T11:55:20.803Z,59.20
2019-01-30T11:57:49.924Z,59.10
2019-01-30T12:00:33.413Z,60.00
2019-01-30T12:03:04.395Z,61.30
2019-01-30T12:05:33.520Z,59.10
2019-01-30T12:08:02.618Z,56.30
2019-01-30T12:10:31.759Z,56.90
2019-01-30T12:13:00.871Z,58.50
2019-01-30T12:15:30.068Z,56.00
2019-01-30T12:17:59.237Z,56.90
2019-01-30T12:20:28.399Z,59.00
2019-01-30T12:22:57.593Z,59.20
2019-01-30T12:25:26.760Z,59.10
2019-01-30T12:27:55.899Z,59.20
2019-01-30T12:30:26.027Z,60.00
2019-01-30T12:32:55.160Z,57.20
2019-01-30T12:35:24.263Z,58.40
2019-01-30T12:37:53.387Z,58.10
2019-01-30T12:40:22.542Z,58.50
2019-01-30T12:42:51.714Z,58.60
2019-01-30T12:45:29.316Z,56.40
2019-01-30T12:47:58.488Z,57.50
2019-01-30T12:50:27.783Z,57.10
2019-01-30T12:52:58.535Z,57.30
2019-01-30T12:55:30.142Z,58.10
2019-01-30T12:57:59.513Z,56.90
2019-01-30T13:00:31.468Z,57.20
2019-01-30T13:03:01.289Z,57.70
2019-01-30T13:05:31.465Z,57.60
2019-01-30T13:08:02.021Z,58.30
2019-01-30T13:10:31.553Z,57.60
2019-01-30T13:13:01.196Z,57.50
2019-01-30T13:15:30.725Z,58.20
2019-01-30T13:18:01.132Z,56.90
2019-01-30T13:20:32.588Z,57.40
2019-01-30T13:23:02.103Z,57.10
2019-01-30T13:25:33.508Z,58.70
2019-01-30T13:28:04.136Z,57.70
2019-01-30T13:30:40.138Z,58.10
2019-01-30T13:33:10.360Z,58.60
2019-01-30T13:35:39.651Z,58.20
2019-01-30T13:38:08.949Z,57.50
2019-01-30T13:40:41.212Z,58.70
2019-01-30T13:43:10.573Z,57.70
2019-01-30T13:45:40.990Z,58.90
2019-01-30T13:48:21.383Z,58.70
2019-01-30T13:50:51.205Z,58.70
2019-01-30T13:53:22.810Z,59.00
2019-01-30T13:55:52.259Z,59.40
2019-01-30T13:58:21.412Z,60.20
2019-01-30T14:00:50.519Z,59.70
2019-01-30T14:03:19.694Z,59.60
2019-01-30T14:05:48.863Z,59.90
2019-01-30T14:08:18.007Z,60.80
2019-01-30T14:10:47.198Z,59.90
2019-01-30T14:13:16.425Z,61.60
2019-01-30T14:15:45.865Z,61.80
2019-01-30T14:18:15.129Z,61.20
2019-01-30T14:20:44.320Z,60.70
2019-01-30T14:23:13.531Z,60.90
2019-01-30T14:25:42.665Z,61.40
2019-01-30T14:28:11.898Z,61.20
2019-01-30T14:30:41.278Z,61.60
2019-01-30T14:33:10.479Z,61.80
2019-01-30T14:35:41.616Z,62.00
2019-01-30T14:38:12.111Z,62.00
2019-01-30T14:40:41.596Z,62.60
2019-01-30T14:43:10.770Z,62.10
2019-01-30T14:45:40.011Z,60.10
2019-01-30T14:48:09.228Z,61.80
2019-01-30T14:50:38.388Z,62.90
2019-01-30T14:53:07.481Z,62.80
2019-01-30T14:55:36.736Z,61.90
2019-01-30T14:58:07.275Z,62.40
2019-01-30T15:00:36.407Z,62.40
2019-01-30T15:03:05.600Z,63.80
2019-01-30T15:05:34.887Z,63.90
2019-01-30T15:08:04.158Z,63.50
2019-01-30T15:10:33.470Z,64.60
2019-01-30T15:13:02.760Z,64.40
2019-01-30T15:15:32.473Z,65.90
2019-01-30T15:18:01.729Z,65.60
2019-01-30T15:20:32.850Z,65.90
2019-01-30T15:23:02.292Z,67.10
2019-01-30T15:25:31.487Z,67.20
2019-01-30T15:28:02.291Z,67.20
2019-01-30T15:30:43.136Z,68.00
2019-01-30T15:33:12.351Z,68.20
2019-01-30T15:35:41.536Z,68.70
2019-01-30T15:38:12.604Z,69.30
2019-01-30T15:40:42.111Z,69.90
2019-01-30T15:43:11.196Z,70.50
2019-01-30T15:45:40.347Z,70.90
2019-01-30T15:48:09.470Z,71.10
2019-01-30T15:50:39.735Z,72.30
2019-01-30T15:53:11.859Z,72.30
2019-01-30T15:55:41.077Z,72.50
2019-01-30T15:58:11.470Z,73.40
2019-01-30T16:01:04.426Z,74.40
2019-01-30T16:03:33.557Z,74.70
2019-01-30T16:06:02.656Z,75.20
2019-01-30T16:08:31.768Z,75.60
2019-01-30T16:11:01.020Z,76.10
2019-01-30T16:13:30.204Z,77.40
2019-01-30T16:16:01.558Z,75.80
2019-01-30T16:18:30.809Z,75.80
2019-01-30T16:20:59.940Z,77.60
2019-01-30T16:23:29.044Z,77.80
2019-01-30T16:25:58.132Z,78.00
2019-01-30T16:28:27.346Z,78.60
2019-01-30T16:30:56.491Z,78.30
2019-01-30T16:33:25.591Z,78.40
2019-01-30T16:35:56.038Z,78.90
2019-01-30T16:38:25.683Z,78.80
2019-01-30T16:40:54.817Z,78.80
2019-01-30T16:43:24.052Z,80.30
2019-01-30T16:45:53.188Z,79.30
2019-01-30T16:48:22.337Z,80.20
2019-01-30T16:50:51.512Z,79.50
2019-01-30T16:53:20.705Z,79.90
2019-01-30T16:55:49.971Z,79.10
2019-01-30T16:58:19.127Z,78.80
2019-01-30T17:00:48.211Z,79.40
2019-01-30T17:03:17.331Z,80.90
2019-01-30T17:05:46.637Z,79.90
2019-01-30T17:08:15.724Z,79.80
2019-01-30T17:10:44.815Z,79.60
2019-01-30T17:13:13.967Z,80.00
2019-01-30T17:15:43.047Z,80.10
2019-01-30T17:18:13.685Z,81.00
2019-01-30T17:20:42.887Z,80.70
2019-01-30T17:23:11.988Z,81.70
2019-01-30T17:25:41.213Z,81.00
2019-01-30T17:28:10.347Z,81.20
2019-01-30T17:30:48.451Z,81.60
2019-01-30T17:33:17.527Z,83.30
2019-01-30T17:35:46.652Z,82.60
2019-01-30T17:38:15.746Z,82.50
2019-01-30T17:40:45.255Z,83.40
2019-01-30T17:43:14.367Z,83.30
2019-01-30T17:45:43.485Z,84.10
2019-01-30T17:48:13.347Z,84.30
2019-01-30T17:50:42.814Z,85.10
2019-01-30T17:53:12.088Z,85.60
2019-01-30T17:55:41.237Z,86.00
2019-01-30T17:58:10.364Z,86.10
2019-01-30T18:00:47.033Z,86.40
2019-01-30T18:03:16.276Z,86.30
2019-01-30T18:05:45.373Z,86.60
2019-01-30T18:08:14.456Z,86.50
2019-01-30T18:10:43.623Z,87.00
2019-01-30T18:13:12.752Z,87.60
2019-01-30T18:15:41.924Z,87.50
2019-01-30T18:18:11.010Z,88.80
2019-01-30T18:20:40.148Z,88.50
2019-01-30T18:23:09.244Z,89.00
2019-01-30T18:25:38.397Z,89.30
2019-01-30T18:28:07.615Z,88.50
2019-01-30T18:30:36.792Z,88.60
2019-01-30T18:33:06.179Z,88.70
2019-01-30T18:35:35.309Z,88.80
2019-01-30T18:38:04.676Z,87.70
2019-01-30T18:40:33.763Z,87.70
2019-01-30T18:43:02.877Z,86.40
2019-01-30T18:45:32.044Z,86.00
2019-01-30T18:48:01.309Z,86.30
2019-01-30T18:50:30.416Z,86.30
2019-01-30T18:52:59.536Z,86.30
2019-01-30T18:55:30.988Z,85.70
2019-01-30T18:57:59.487Z,85.80
2019-01-30T19:00:36.782Z,85.50
2019-01-30T19:03:08.159Z,86.00
2019-01-30T19:05:37.360Z,86.20
2019-01-30T19:08:06.954Z,85.30
2019-01-30T19:10:36.051Z,85.20
2019-01-30T19:13:05.268Z,84.90
2019-01-30T19:15:34.386Z,85.00
2019-01-30T19:18:03.572Z,84.70
2019-01-30T19:20:35.191Z,84.50
2019-01-30T19:23:06.840Z,84.20
2019-01-30T19:25:35.183Z,84.50
2019-01-30T19:28:04.425Z,83.70
2019-01-30T19:30:33.771Z,83.60
2019-01-30T19:33:02.888Z,83.80
2019-01-30T19:35:31.996Z,83.60
2019-01-30T19:38:01.176Z,83.90
2019-01-30T19:40:30.383Z,83.60
2019-01-30T19:42:59.496Z,83.50
2019-01-30T19:45:28.695Z,83.60
2019-01-30T19:47:57.809Z,83.50
2019-01-30T19:50:28.752Z,83.60
2019-01-30T19:52:58.554Z,84.00
2019-01-30T19:55:27.675Z,83.70
2019-01-30T19:57:57.255Z,84.10
2019-01-30T20:00:38.100Z,84.40
2019-01-30T20:03:10.081Z,85.50
2019-01-30T20:05:39.283Z,86.20
2019-01-30T20:08:08.414Z,85.60
2019-01-30T20:10:37.580Z,85.90
2019-01-30T20:13:06.683Z,85.90
2019-01-30T20:15:35.791Z,85.90
2019-01-30T20:18:04.923Z,86.30
2019-01-30T20:20:34.139Z,86.20
2019-01-30T20:23:03.261Z,86.60
2019-01-30T20:25:34.287Z,86.20
2019-01-30T20:28:03.463Z,86.60
2019-01-30T20:30:32.632Z,86.10
2019-01-30T20:33:01.774Z,86.70
2019-01-30T20:35:30.965Z,84.80
2019-01-30T20:38:02.479Z,84.10
2019-01-30T20:40:31.697Z,85.30
2019-01-30T20:43:00.843Z,86.00
2019-01-30T20:45:33.945Z,87.00
2019-01-30T20:48:00.858Z,86.80
2019-01-30T20:50:30.341Z,86.70
2019-01-30T20:52:59.543Z,85.70
2019-01-30T20:55:28.640Z,85.70
2019-01-30T20:57:57.745Z,86.80
2019-01-30T21:00:34.916Z,85.70
2019-01-30T21:03:02.708Z,85.60
2019-01-30T21:05:31.807Z,86.60
2019-01-30T21:08:00.875Z,86.60
2019-01-30T21:10:35.579Z,87.40
2019-01-30T21:13:05.279Z,86.60
2019-01-30T21:15:34.450Z,87.20
2019-01-30T21:18:03.570Z,89.40
2019-01-30T21:20:32.719Z,89.60
2019-01-30T21:23:01.828Z,89.30
2019-01-30T21:25:30.919Z,89.00
2019-01-30T21:28:00.053Z,89.60
2019-01-30T21:30:34.216Z,88.80
2019-01-30T21:33:03.411Z,90.10
2019-01-30T21:35:32.616Z,89.40
2019-01-30T21:38:01.807Z,90.10
2019-01-30T21:40:30.978Z,91.10
2019-01-30T21:43:00.084Z,90.50
2019-01-30T21:45:29.176Z,91.20
2019-01-30T21:47:58.284Z,90.80
2019-01-30T21:50:27.546Z,91.20
2019-01-30T21:52:56.656Z,91.00
2019-01-30T21:55:25.913Z,92.10
2019-01-30T21:57:55.035Z,91.70
2019-01-30T22:00:26.161Z,91.80
2019-01-30T22:02:55.302Z,91.70
2019-01-30T22:05:24.468Z,91.30
2019-01-30T22:08:00.630Z,91.80
2019-01-30T22:10:26.444Z,91.70
2019-01-30T22:12:55.671Z,91.60
2019-01-30T22:15:24.859Z,91.80
2019-01-30T22:17:53.992Z,92.40
2019-01-30T22:20:24.631Z,92.40
2019-01-30T22:22:53.842Z,92.40
2019-01-30T22:25:23.729Z,93.10
2019-01-30T22:27:52.909Z,93.30
2019-01-30T22:30:23.984Z,93.00
2019-01-30T22:32:53.156Z,93.50
2019-01-30T22:35:22.407Z,93.20
2019-01-30T22:37:51.496Z,93.00
2019-01-30T22:40:20.610Z,93.40
2019-01-30T22:42:49.730Z,93.10
2019-01-30T22:45:19.179Z,93.40
2019-01-30T22:47:48.287Z,93.10
2019-01-30T22:50:17.423Z,93.40
2019-01-30T22:52:46.517Z,93.40
2019-01-30T22:55:17.364Z,93.60
2019-01-30T22:57:46.478Z,93.40
2019-01-30T23:00:54.569Z,93.50
2019-01-30T23:03:51.379Z,94.00
2019-01-30T23:06:40.547Z,94.30
2019-01-30T23:09:45.863Z,94.50
2019-01-30T23:13:02.231Z,94.30
2019-01-30T23:16:18.400Z,94.70
2019-01-30T23:19:31.657Z,94.90
2019-01-30T23:22:30.535Z,95.30
2019-01-30T23:25:35.205Z,95.60
2019-01-30T23:28:16.516Z,95.50
2019-01-30T23:31:29.731Z,95.40
2019-01-30T23:34:22.801Z,95.60
2019-01-30T23:37:24.791Z,95.90
2019-01-30T23:40:31.516Z,95.80
2019-01-30T23:43:29.700Z,95.90
2019-01-30T23:46:09.876Z,96.00
2019-01-30T23:49:16.095Z,96.60
2019-01-30T23:52:20.876Z,96.60
2019-01-30T23:55:18.743Z,96.30
2019-01-30T23:58:32.980Z,96.80
